sensor_id;sensor_type;location;lat;lon;timestamp;temperature;humidity
5415;DHT22;2730;51.512;7.504;2022-11-04T06:01:24;8.20;99.90
5415;DHT22;2730;51.512;7.504;2022-11-04T06:03:52;8.20;99.90
5415;DHT22;2730;51.512;7.504;2022-11-04T06:06:19;8.20;99.90
5415;DHT22;2730;51.512;7.504;2022-11-04T06:08:46;8.20;99.90
5415;DHT22;2730;51.512;7.504;2022-11-04T06:11:13;8.30;99.90
5415;DHT22;2730;51.512;7.504;2022-11-04T06:13:40;8.40;99.90
5415;DHT22;2730;51.512;7.504;2022-11-04T06:16:07;8.50;99.90
5415;DHT22;2730;51.512;7.504;2022-11-04T06:18:35;8.50;99.90
5415;DHT22;2730;51.512;7.504;2022-11-04T06:21:16;8.60;99.90
5415;DHT22;2730;51.512;7.504;2022-11-04T06:23:44;8.60;99.90
5415;DHT22;2730;51.512;7.504;2022-11-04T06:26:12;8.70;99.90
5415;DHT22;2730;51.512;7.504;2022-11-04T06:28:39;8.80;99.90
5415;DHT22;2730;51.512;7.504;2022-11-04T06:31:08;8.80;99.90
5415;DHT22;2730;51.512;7.504;2022-11-04T06:33:37;8.80;99.90
5415;DHT22;2730;51.512;7.504;2022-11-04T06:36:05;8.90;99.90
5415;DHT22;2730;51.512;7.504;2022-11-04T06:38:35;8.90;99.90
5415;DHT22;2730;51.512;7.504;2022-11-04T06:41:03;9.00;99.90
5415;DHT22;2730;51.512;7.504;2022-11-04T06:43:30;8.90;99.90
5415;DHT22;2730;51.512;7.504;2022-11-04T06:45:58;8.90;99.90
5415;DHT22;2730;51.512;7.504;2022-11-04T06:48:25;8.90;99.90
5415;DHT22;2730;51.512;7.504;2022-11-04T06:50:53;8.90;99.90
5415;DHT22;2730;51.512;7.504;2022-11-04T06:53:20;9.00;99.90
5415;DHT22;2730;51.512;7.504;2022-11-04T06:55:46;9.00;99.90
5415;DHT22;2730;51.512;7.504;2022-11-04T06:58:13;9.10;99.90
5415;DHT22;2730;51.512;7.504;2022-11-04T07:00:41;9.10;99.90
5415;DHT22;2730;51.512;7.504;2022-11-04T07:03:08;9.20;99.90
5415;DHT22;2730;51.512;7.504;2022-11-04T07:05:35;9.20;99.90
5415;DHT22;2730;51.512;7.504;2022-11-04T07:08:03;9.20;99.90
5415;DHT22;2730;51.512;7.504;2022-11-04T07:10:30;9.30;99.90
5415;DHT22;2730;51.512;7.504;2022-11-04T07:12:57;9.30;99.90
5415;DHT22;2730;51.512;7.504;2022-11-04T07:15:24;9.40;99.90
5415;DHT22;2730;51.512;7.504;2022-11-04T07:17:51;9.50;99.90
5415;DHT22;2730;51.512;7.504;2022-11-04T07:20:17;9.50;99.90
5415;DHT22;2730;51.512;7.504;2022-11-04T07:22:44;9.60;99.90
5415;DHT22;2730;51.512;7.504;2022-11-04T07:25:12;9.70;99.90
5415;DHT22;2730;51.512;7.504;2022-11-04T07:27:39;9.80;99.90
5415;DHT22;2730;51.512;7.504;2022-11-04T07:30:07;9.80;99.90
5415;DHT22;2730;51.512;7.504;2022-11-04T07:32:34;9.80;99.90
5415;DHT22;2730;51.512;7.504;2022-11-04T07:35:00;9.70;99.90
5415;DHT22;2730;51.512;7.504;2022-11-04T07:37:27;9.80;99.90
5415;DHT22;2730;51.512;7.504;2022-11-04T07:39:54;9.80;99.90
5415;DHT22;2730;51.512;7.504;2022-11-04T07:42:22;9.80;99.90
5415;DHT22;2730;51.512;7.504;2022-11-04T07:44:49;9.80;99.90
5415;DHT22;2730;51.512;7.504;2022-11-04T07:47:16;9.90;99.90
5415;DHT22;2730;51.512;7.504;2022-11-04T07:49:42;9.90;99.90
5415;DHT22;2730;51.512;7.504;2022-11-04T07:52:09;10.00;99.90
5415;DHT22;2730;51.512;7.504;2022-11-04T07:54:36;10.00;99.90
5415;DHT22;2730;51.512;7.504;2022-11-04T07:57:03;10.10;99.90
5415;DHT22;2730;51.512;7.504;2022-11-04T07:59:31;10.20;99.90
5415;DHT22;2730;51.512;7.504;2022-11-04T08:01:58;10.40;99.90
5415;DHT22;2730;51.512;7.504;2022-11-04T08:04:25;10.50;99.90
5415;DHT22;2730;51.512;7.504;2022-11-04T08:06:52;10.70;99.90
5415;DHT22;2730;51.512;7.504;2022-11-04T08:09:19;10.70;99.90
5415;DHT22;2730;51.512;7.504;2022-11-04T08:11:46;10.90;99.90
5415;DHT22;2730;51.512;7.504;2022-11-04T08:14:12;10.90;99.90
5415;DHT22;2730;51.512;7.504;2022-11-04T08:16:41;11.00;99.90
5415;DHT22;2730;51.512;7.504;2022-11-04T08:19:08;11.10;99.90
5415;DHT22;2730;51.512;7.504;2022-11-04T08:21:35;11.10;99.90
5415;DHT22;2730;51.512;7.504;2022-11-04T08:24:02;11.30;99.90
5415;DHT22;2730;51.512;7.504;2022-11-04T08:26:30;11.40;99.90
5415;DHT22;2730;51.512;7.504;2022-11-04T08:28:57;11.60;99.90
5415;DHT22;2730;51.512;7.504;2022-11-04T08:31:27;11.80;99.90
5415;DHT22;2730;51.512;7.504;2022-11-04T08:33:56;11.90;99.90
5415;DHT22;2730;51.512;7.504;2022-11-04T08:36:25;12.00;99.90
5415;DHT22;2730;51.512;7.504;2022-11-04T08:38:53;11.80;99.90
5415;DHT22;2730;51.512;7.504;2022-11-04T08:41:23;11.80;99.90
5415;DHT22;2730;51.512;7.504;2022-11-04T08:43:50;12.00;99.90
5415;DHT22;2730;51.512;7.504;2022-11-04T08:46:17;12.10;99.90
5415;DHT22;2730;51.512;7.504;2022-11-04T08:48:44;12.20;99.90
5415;DHT22;2730;51.512;7.504;2022-11-04T08:51:16;12.70;99.90
5415;DHT22;2730;51.512;7.504;2022-11-04T08:53:43;13.90;99.90
5415;DHT22;2730;51.512;7.504;2022-11-04T08:56:11;15.10;99.90
5415;DHT22;2730;51.512;7.504;2022-11-04T08:58:38;16.00;99.90
5415;DHT22;2730;51.512;7.504;2022-11-04T09:01:06;16.10;99.90
5415;DHT22;2730;51.512;7.504;2022-11-04T09:03:32;15.90;99.90
5415;DHT22;2730;51.512;7.504;2022-11-04T09:06:02;16.10;99.90
5415;DHT22;2730;51.512;7.504;2022-11-04T09:08:30;15.90;99.90
5415;DHT22;2730;51.512;7.504;2022-11-04T09:10:57;15.30;99.90
5415;DHT22;2730;51.512;7.504;2022-11-04T09:13:23;14.80;99.90
5415;DHT22;2730;51.512;7.504;2022-11-04T09:15:50;14.80;99.90
5415;DHT22;2730;51.512;7.504;2022-11-04T09:18:17;14.70;99.90
5415;DHT22;2730;51.512;7.504;2022-11-04T09:20:44;14.80;99.90
5415;DHT22;2730;51.512;7.504;2022-11-04T09:23:10;15.50;99.90
5415;DHT22;2730;51.512;7.504;2022-11-04T09:25:38;16.10;99.90
5415;DHT22;2730;51.512;7.504;2022-11-04T09:28:05;16.70;99.90
5415;DHT22;2730;51.512;7.504;2022-11-04T09:30:32;17.10;99.90
5415;DHT22;2730;51.512;7.504;2022-11-04T09:32:59;17.80;99.90
5415;DHT22;2730;51.512;7.504;2022-11-04T09:35:26;18.20;99.90
5415;DHT22;2730;51.512;7.504;2022-11-04T09:37:53;18.40;99.90
5415;DHT22;2730;51.512;7.504;2022-11-04T09:40:21;18.10;99.90
5415;DHT22;2730;51.512;7.504;2022-11-04T09:42:57;17.70;99.90
5415;DHT22;2730;51.512;7.504;2022-11-04T09:45:30;16.80;99.90
5415;DHT22;2730;51.512;7.504;2022-11-04T09:48:02;16.90;99.90
5415;DHT22;2730;51.512;7.504;2022-11-04T09:50:45;17.10;99.90
5415;DHT22;2730;51.512;7.504;2022-11-04T09:53:16;17.00;99.90
5415;DHT22;2730;51.512;7.504;2022-11-04T09:55:49;17.10;99.90
5415;DHT22;2730;51.512;7.504;2022-11-04T09:58:19;16.90;99.90
5415;DHT22;2730;51.512;7.504;2022-11-04T10:00:50;17.00;99.90
5415;DHT22;2730;51.512;7.504;2022-11-04T10:03:26;17.10;99.90
5415;DHT22;2730;51.512;7.504;2022-11-04T10:06:06;17.50;99.90
5415;DHT22;2730;51.512;7.504;2022-11-04T10:08:49;18.00;99.90
5415;DHT22;2730;51.512;7.504;2022-11-04T10:11:25;17.80;99.90
5415;DHT22;2730;51.512;7.504;2022-11-04T10:14:09;17.90;99.90
5415;DHT22;2730;51.512;7.504;2022-11-04T10:16:52;17.80;99.90
5415;DHT22;2730;51.512;7.504;2022-11-04T10:19:29;17.60;99.90
5415;DHT22;2730;51.512;7.504;2022-11-04T10:22:02;17.30;99.90
5415;DHT22;2730;51.512;7.504;2022-11-04T10:24:40;17.70;99.90
5415;DHT22;2730;51.512;7.504;2022-11-04T10:27:14;18.00;99.90
5415;DHT22;2730;51.512;7.504;2022-11-04T10:29:44;18.10;99.90
5415;DHT22;2730;51.512;7.504;2022-11-04T10:32:15;17.80;99.90
5415;DHT22;2730;51.512;7.504;2022-11-04T10:34:46;17.50;99.90
5415;DHT22;2730;51.512;7.504;2022-11-04T10:37:14;17.20;99.90
5415;DHT22;2730;51.512;7.504;2022-11-04T10:39:44;17.10;99.90
5415;DHT22;2730;51.512;7.504;2022-11-04T10:42:13;16.90;99.90
5415;DHT22;2730;51.512;7.504;2022-11-04T10:44:43;16.80;99.90
5415;DHT22;2730;51.512;7.504;2022-11-04T10:47:18;16.40;99.90
5415;DHT22;2730;51.512;7.504;2022-11-04T10:49:58;16.10;99.90
5415;DHT22;2730;51.512;7.504;2022-11-04T10:52:27;15.50;99.90
5415;DHT22;2730;51.512;7.504;2022-11-04T10:54:54;15.20;99.90
5415;DHT22;2730;51.512;7.504;2022-11-04T10:57:23;15.00;99.90
5415;DHT22;2730;51.512;7.504;2022-11-04T10:59:53;14.80;99.90
5415;DHT22;2730;51.512;7.504;2022-11-04T11:02:44;14.80;99.90
5415;DHT22;2730;51.512;7.504;2022-11-04T11:05:13;14.80;99.90
5415;DHT22;2730;51.512;7.504;2022-11-04T11:07:40;14.80;99.90
5415;DHT22;2730;51.512;7.504;2022-11-04T11:10:15;14.70;99.90
5415;DHT22;2730;51.512;7.504;2022-11-04T11:12:43;14.40;99.90
5415;DHT22;2730;51.512;7.504;2022-11-04T11:15:28;14.50;99.90
5415;DHT22;2730;51.512;7.504;2022-11-04T11:18:00;14.40;99.90
5415;DHT22;2730;51.512;7.504;2022-11-04T11:20:28;14.50;99.90
5415;DHT22;2730;51.512;7.504;2022-11-04T11:22:57;14.40;99.90
5415;DHT22;2730;51.512;7.504;2022-11-04T11:25:27;14.30;99.90
5415;DHT22;2730;51.512;7.504;2022-11-04T11:27:55;14.30;99.90
5415;DHT22;2730;51.512;7.504;2022-11-04T11:30:27;14.30;99.90
5415;DHT22;2730;51.512;7.504;2022-11-04T11:32:59;14.30;99.90
5415;DHT22;2730;51.512;7.504;2022-11-04T11:35:31;14.40;99.90
5415;DHT22;2730;51.512;7.504;2022-11-04T11:37:59;14.40;99.90
5415;DHT22;2730;51.512;7.504;2022-11-04T11:40:30;14.40;99.90
5415;DHT22;2730;51.512;7.504;2022-11-04T11:42:59;14.30;99.90
5415;DHT22;2730;51.512;7.504;2022-11-04T11:45:29;14.30;99.90
5415;DHT22;2730;51.512;7.504;2022-11-04T11:47:56;14.30;99.90
5415;DHT22;2730;51.512;7.504;2022-11-04T11:50:25;14.10;99.90
5415;DHT22;2730;51.512;7.504;2022-11-04T11:53:13;14.00;99.90
5415;DHT22;2730;51.512;7.504;2022-11-04T11:55:44;14.10;99.90
5415;DHT22;2730;51.512;7.504;2022-11-04T11:58:19;14.20;99.90
5415;DHT22;2730;51.512;7.504;2022-11-04T12:00:51;14.10;99.90
5415;DHT22;2730;51.512;7.504;2022-11-04T12:03:24;14.10;99.90
5415;DHT22;2730;51.512;7.504;2022-11-04T12:06:04;14.20;99.90
5415;DHT22;2730;51.512;7.504;2022-11-04T12:08:52;14.20;99.90
5415;DHT22;2730;51.512;7.504;2022-11-04T12:11:26;14.10;99.90
5415;DHT22;2730;51.512;7.504;2022-11-04T12:13:56;14.10;99.90
5415;DHT22;2730;51.512;7.504;2022-11-04T12:16:33;14.00;99.90
5415;DHT22;2730;51.512;7.504;2022-11-04T12:19:21;13.90;99.90
5415;DHT22;2730;51.512;7.504;2022-11-04T12:21:56;13.70;99.90
5415;DHT22;2730;51.512;7.504;2022-11-04T12:24:29;13.70;99.90
5415;DHT22;2730;51.512;7.504;2022-11-04T12:27:04;13.60;99.90
5415;DHT22;2730;51.512;7.504;2022-11-04T12:29:44;13.60;99.90
5415;DHT22;2730;51.512;7.504;2022-11-04T12:32:25;13.70;99.90
5415;DHT22;2730;51.512;7.504;2022-11-04T12:35:03;13.70;99.90
5415;DHT22;2730;51.512;7.504;2022-11-04T12:37:40;13.60;99.90
5415;DHT22;2730;51.512;7.504;2022-11-04T12:40:17;13.50;99.90
5415;DHT22;2730;51.512;7.504;2022-11-04T12:42:57;13.60;99.90
5415;DHT22;2730;51.512;7.504;2022-11-04T12:45:33;13.50;99.90
5415;DHT22;2730;51.512;7.504;2022-11-04T12:48:08;13.50;99.90
5415;DHT22;2730;51.512;7.504;2022-11-04T12:50:48;13.40;99.90
5415;DHT22;2730;51.512;7.504;2022-11-04T12:53:42;13.50;99.90
5415;DHT22;2730;51.512;7.504;2022-11-04T12:56:16;13.50;99.90
5415;DHT22;2730;51.512;7.504;2022-11-04T12:59:03;13.50;99.90
5415;DHT22;2730;51.512;7.504;2022-11-04T13:01:38;13.50;99.90
5415;DHT22;2730;51.512;7.504;2022-11-04T13:04:11;13.40;99.90
5415;DHT22;2730;51.512;7.504;2022-11-04T13:06:42;13.50;99.90
5415;DHT22;2730;51.512;7.504;2022-11-04T13:09:15;13.50;99.90
5415;DHT22;2730;51.512;7.504;2022-11-04T13:11:47;13.60;99.90
5415;DHT22;2730;51.512;7.504;2022-11-04T13:14:19;13.60;99.90
5415;DHT22;2730;51.512;7.504;2022-11-04T13:16:55;13.50;99.90
5415;DHT22;2730;51.512;7.504;2022-11-04T13:19:28;13.40;99.90
5415;DHT22;2730;51.512;7.504;2022-11-04T13:21:59;13.40;99.90
5415;DHT22;2730;51.512;7.504;2022-11-04T13:24:29;13.40;99.90
5415;DHT22;2730;51.512;7.504;2022-11-04T13:27:00;13.40;99.90
5415;DHT22;2730;51.512;7.504;2022-11-04T13:29:29;13.40;99.90
5415;DHT22;2730;51.512;7.504;2022-11-04T13:32:03;13.40;99.90
5415;DHT22;2730;51.512;7.504;2022-11-04T13:34:37;13.30;99.90
5415;DHT22;2730;51.512;7.504;2022-11-04T13:37:12;13.30;99.90
5415;DHT22;2730;51.512;7.504;2022-11-04T13:39:44;13.20;99.90
5415;DHT22;2730;51.512;7.504;2022-11-04T13:42:48;13.10;99.90
5415;DHT22;2730;51.512;7.504;2022-11-04T13:45:20;12.90;99.90
5415;DHT22;2730;51.512;7.504;2022-11-04T13:47:49;12.70;99.90
5415;DHT22;2730;51.512;7.504;2022-11-04T13:50:32;12.50;99.90
5415;DHT22;2730;51.512;7.504;2022-11-04T13:53:00;12.40;99.90
5415;DHT22;2730;51.512;7.504;2022-11-04T13:55:27;12.30;99.90
5415;DHT22;2730;51.512;7.504;2022-11-04T13:57:56;12.20;99.90
5415;DHT22;2730;51.512;7.504;2022-11-04T14:00:25;12.20;99.90
5415;DHT22;2730;51.512;7.504;2022-11-04T14:02:53;12.10;99.90
5415;DHT22;2730;51.512;7.504;2022-11-04T14:08:23;12.10;99.90
5415;DHT22;2730;51.512;7.504;2022-11-04T14:16:41;12.10;99.90
5415;DHT22;2730;51.512;7.504;2022-11-04T14:22:29;12.10;99.90
5415;DHT22;2730;51.512;7.504;2022-11-04T14:25:00;12.20;99.90
5415;DHT22;2730;51.512;7.504;2022-11-04T14:27:35;12.30;99.90
5415;DHT22;2730;51.512;7.504;2022-11-04T14:30:05;12.30;99.90
5415;DHT22;2730;51.512;7.504;2022-11-04T14:32:37;12.20;99.90
5415;DHT22;2730;51.512;7.504;2022-11-04T14:35:06;12.20;99.90
5415;DHT22;2730;51.512;7.504;2022-11-04T14:37:42;12.20;99.90
5415;DHT22;2730;51.512;7.504;2022-11-04T14:40:23;12.30;99.90
5415;DHT22;2730;51.512;7.504;2022-11-04T14:42:51;12.20;99.90
5415;DHT22;2730;51.512;7.504;2022-11-04T14:45:21;12.20;99.90
5415;DHT22;2730;51.512;7.504;2022-11-04T14:47:51;12.20;99.90
5415;DHT22;2730;51.512;7.504;2022-11-04T14:50:23;12.10;99.90
5415;DHT22;2730;51.512;7.504;2022-11-04T14:52:54;12.10;99.90
5415;DHT22;2730;51.512;7.504;2022-11-04T14:55:25;12.10;99.90
5415;DHT22;2730;51.512;7.504;2022-11-04T14:58:22;12.10;99.90
5415;DHT22;2730;51.512;7.504;2022-11-04T15:00:52;12.10;99.90
5415;DHT22;2730;51.512;7.504;2022-11-04T15:03:24;12.10;99.90
5415;DHT22;2730;51.512;7.504;2022-11-04T15:05:53;12.00;99.90
5415;DHT22;2730;51.512;7.504;2022-11-04T15:08:28;12.00;99.90
5415;DHT22;2730;51.512;7.504;2022-11-04T15:11:00;12.00;99.90
5415;DHT22;2730;51.512;7.504;2022-11-04T15:13:28;12.00;99.90
5415;DHT22;2730;51.512;7.504;2022-11-04T15:16:04;12.00;99.90
5415;DHT22;2730;51.512;7.504;2022-11-04T15:18:33;12.00;99.90
5415;DHT22;2730;51.512;7.504;2022-11-04T15:21:04;11.90;99.90
5415;DHT22;2730;51.512;7.504;2022-11-04T15:23:34;11.80;99.90
5415;DHT22;2730;51.512;7.504;2022-11-04T15:26:02;11.80;99.90
5415;DHT22;2730;51.512;7.504;2022-11-04T15:28:33;11.80;99.90
5415;DHT22;2730;51.512;7.504;2022-11-04T15:31:06;11.80;99.90
5415;DHT22;2730;51.512;7.504;2022-11-04T15:33:37;11.80;99.90
5415;DHT22;2730;51.512;7.504;2022-11-04T15:36:08;11.70;99.90
5415;DHT22;2730;51.512;7.504;2022-11-04T15:38:38;11.70;99.90
5415;DHT22;2730;51.512;7.504;2022-11-04T15:41:06;11.70;99.90
5415;DHT22;2730;51.512;7.504;2022-11-04T15:43:51;11.70;99.90
5415;DHT22;2730;51.512;7.504;2022-11-04T15:46:21;11.70;99.90
5415;DHT22;2730;51.512;7.504;2022-11-04T15:49:00;11.70;99.90
5415;DHT22;2730;51.512;7.504;2022-11-04T15:51:28;11.70;99.90
5415;DHT22;2730;51.512;7.504;2022-11-04T15:53:58;11.70;99.90
5415;DHT22;2730;51.512;7.504;2022-11-04T15:56:27;11.70;99.90
5415;DHT22;2730;51.512;7.504;2022-11-04T15:58:55;11.70;99.90
5415;DHT22;2730;51.512;7.504;2022-11-04T16:01:24;11.70;99.90
5415;DHT22;2730;51.512;7.504;2022-11-04T16:03:55;11.60;99.90
5415;DHT22;2730;51.512;7.504;2022-11-04T16:06:36;11.60;99.90
5415;DHT22;2730;51.512;7.504;2022-11-04T16:09:06;11.60;99.90
5415;DHT22;2730;51.512;7.504;2022-11-04T16:11:33;11.60;99.90
5415;DHT22;2730;51.512;7.504;2022-11-04T16:14:21;11.60;99.90
5415;DHT22;2730;51.512;7.504;2022-11-04T16:16:51;11.60;99.90
5415;DHT22;2730;51.512;7.504;2022-11-04T16:19:20;11.60;99.90
5415;DHT22;2730;51.512;7.504;2022-11-04T16:21:57;11.60;99.90
5415;DHT22;2730;51.512;7.504;2022-11-04T16:24:26;11.60;99.90
5415;DHT22;2730;51.512;7.504;2022-11-04T16:26:55;11.50;99.90
5415;DHT22;2730;51.512;7.504;2022-11-04T16:29:25;11.60;99.90
5415;DHT22;2730;51.512;7.504;2022-11-04T16:32:16;11.60;99.90
5415;DHT22;2730;51.512;7.504;2022-11-04T16:34:43;11.60;99.90
5415;DHT22;2730;51.512;7.504;2022-11-04T16:37:10;11.60;99.90
5415;DHT22;2730;51.512;7.504;2022-11-04T16:39:38;11.50;99.90
5415;DHT22;2730;51.512;7.504;2022-11-04T16:42:05;11.50;99.90
5415;DHT22;2730;51.512;7.504;2022-11-04T16:44:32;11.50;99.90
5415;DHT22;2730;51.512;7.504;2022-11-04T16:47:01;11.50;99.90
5415;DHT22;2730;51.512;7.504;2022-11-04T16:49:30;11.50;99.90
5415;DHT22;2730;51.512;7.504;2022-11-04T16:52:00;11.50;99.90
5415;DHT22;2730;51.512;7.504;2022-11-04T16:54:28;11.50;99.90
5415;DHT22;2730;51.512;7.504;2022-11-04T16:56:55;11.50;99.90
5415;DHT22;2730;51.512;7.504;2022-11-04T16:59:22;11.50;99.90
5415;DHT22;2730;51.512;7.504;2022-11-04T17:01:49;11.40;99.90
5415;DHT22;2730;51.512;7.504;2022-11-04T17:04:15;11.40;99.90
5415;DHT22;2730;51.512;7.504;2022-11-04T17:06:43;11.40;99.90
5415;DHT22;2730;51.512;7.504;2022-11-04T17:09:18;11.40;99.90
5415;DHT22;2730;51.512;7.504;2022-11-04T17:11:46;11.40;99.90
5415;DHT22;2730;51.512;7.504;2022-11-04T17:14:13;11.40;99.90
5415;DHT22;2730;51.512;7.504;2022-11-04T17:16:40;11.30;99.90
5415;DHT22;2730;51.512;7.504;2022-11-04T17:19:11;11.30;99.90
5415;DHT22;2730;51.512;7.504;2022-11-04T17:21:39;11.40;99.90
5415;DHT22;2730;51.512;7.504;2022-11-04T17:24:08;11.40;99.90
5415;DHT22;2730;51.512;7.504;2022-11-04T17:26:35;11.40;99.90
5415;DHT22;2730;51.512;7.504;2022-11-04T17:29:02;11.40;99.90
5415;DHT22;2730;51.512;7.504;2022-11-04T17:31:29;11.40;99.90
5415;DHT22;2730;51.512;7.504;2022-11-04T17:33:56;11.40;99.90
5415;DHT22;2730;51.512;7.504;2022-11-04T17:36:22;11.40;99.90
5415;DHT22;2730;51.512;7.504;2022-11-04T17:38:49;11.40;99.90
5415;DHT22;2730;51.512;7.504;2022-11-04T17:41:17;11.40;99.90
5415;DHT22;2730;51.512;7.504;2022-11-04T17:44:02;11.40;99.90
5415;DHT22;2730;51.512;7.504;2022-11-04T17:46:30;11.30;99.90
5415;DHT22;2730;51.512;7.504;2022-11-04T17:49:05;11.30;99.90
5415;DHT22;2730;51.512;7.504;2022-11-04T17:51:32;11.30;99.90
5415;DHT22;2730;51.512;7.504;2022-11-04T17:53:59;11.30;99.90
5415;DHT22;2730;51.512;7.504;2022-11-04T17:56:28;11.30;99.90
5415;DHT22;2730;51.512;7.504;2022-11-04T17:58:57;11.30;99.90
5415;DHT22;2730;51.512;7.504;2022-11-04T18:01:24;11.30;99.90
5415;DHT22;2730;51.512;7.504;2022-11-04T18:03:51;11.20;99.90
5415;DHT22;2730;51.512;7.504;2022-11-04T18:06:19;11.20;99.90
5415;DHT22;2730;51.512;7.504;2022-11-04T18:08:46;11.20;99.90
5415;DHT22;2730;51.512;7.504;2022-11-04T18:11:13;11.20;99.90
5415;DHT22;2730;51.512;7.504;2022-11-04T18:14:02;11.20;99.90
5415;DHT22;2730;51.512;7.504;2022-11-04T18:16:28;11.20;99.90
5415;DHT22;2730;51.512;7.504;2022-11-04T18:18:56;11.20;99.90
5415;DHT22;2730;51.512;7.504;2022-11-04T18:21:23;11.20;99.90
5415;DHT22;2730;51.512;7.504;2022-11-04T18:23:50;11.10;99.90
5415;DHT22;2730;51.512;7.504;2022-11-04T18:26:17;11.10;99.90
5415;DHT22;2730;51.512;7.504;2022-11-04T18:31:28;11.00;99.90
5415;DHT22;2730;51.512;7.504;2022-11-04T18:33:57;11.00;99.90
5415;DHT22;2730;51.512;7.504;2022-11-04T18:36:25;11.00;99.90
5415;DHT22;2730;51.512;7.504;2022-11-04T18:38:52;10.90;99.90
5415;DHT22;2730;51.512;7.504;2022-11-04T18:41:18;10.90;99.90
5415;DHT22;2730;51.512;7.504;2022-11-04T18:43:45;10.80;99.90
5415;DHT22;2730;51.512;7.504;2022-11-04T18:46:13;10.70;99.90
5415;DHT22;2730;51.512;7.504;2022-11-04T18:48:46;10.60;99.90
5415;DHT22;2730;51.512;7.504;2022-11-04T18:51:14;10.60;99.90
5415;DHT22;2730;51.512;7.504;2022-11-04T18:53:41;10.50;99.90
5415;DHT22;2730;51.512;7.504;2022-11-04T18:56:10;10.50;99.90
5415;DHT22;2730;51.512;7.504;2022-11-04T18:58:39;10.40;99.90
5415;DHT22;2730;51.512;7.504;2022-11-04T19:01:08;10.40;99.90
5415;DHT22;2730;51.512;7.504;2022-11-04T19:03:36;10.40;99.90
5415;DHT22;2730;51.512;7.504;2022-11-04T19:06:06;10.30;99.90
5415;DHT22;2730;51.512;7.504;2022-11-04T19:08:34;10.20;99.90
5415;DHT22;2730;51.512;7.504;2022-11-04T19:11:07;10.20;99.90
5415;DHT22;2730;51.512;7.504;2022-11-04T19:13:34;10.10;99.90
5415;DHT22;2730;51.512;7.504;2022-11-04T19:16:04;10.10;99.90
5415;DHT22;2730;51.512;7.504;2022-11-04T19:18:31;10.10;99.90
5415;DHT22;2730;51.512;7.504;2022-11-04T19:21:02;10.00;99.90
5415;DHT22;2730;51.512;7.504;2022-11-04T19:23:31;10.00;99.90
5415;DHT22;2730;51.512;7.504;2022-11-04T19:25:58;9.90;99.90
5415;DHT22;2730;51.512;7.504;2022-11-04T19:28:25;9.90;99.90
5415;DHT22;2730;51.512;7.504;2022-11-04T19:30:58;9.90;99.90
5415;DHT22;2730;51.512;7.504;2022-11-04T19:33:25;9.90;99.90
5415;DHT22;2730;51.512;7.504;2022-11-04T19:35:52;9.80;99.90
5415;DHT22;2730;51.512;7.504;2022-11-04T19:38:19;9.80;99.90
5415;DHT22;2730;51.512;7.504;2022-11-04T19:40:50;9.80;99.90
5415;DHT22;2730;51.512;7.504;2022-11-04T19:43:17;9.80;99.90
5415;DHT22;2730;51.512;7.504;2022-11-04T19:45:45;9.80;99.90
5415;DHT22;2730;51.512;7.504;2022-11-04T19:48:14;9.80;99.90
5415;DHT22;2730;51.512;7.504;2022-11-04T19:50:43;9.80;99.90
5415;DHT22;2730;51.512;7.504;2022-11-04T19:53:10;9.80;99.90
5415;DHT22;2730;51.512;7.504;2022-11-04T19:55:37;9.80;99.90
5415;DHT22;2730;51.512;7.504;2022-11-04T19:58:05;9.70;99.90
5415;DHT22;2730;51.512;7.504;2022-11-04T20:00:32;9.60;99.90
5415;DHT22;2730;51.512;7.504;2022-11-04T20:02:59;9.50;99.90
5415;DHT22;2730;51.512;7.504;2022-11-04T20:05:26;9.50;99.90
5415;DHT22;2730;51.512;7.504;2022-11-04T20:07:52;9.40;99.90
5415;DHT22;2730;51.512;7.504;2022-11-04T20:10:21;9.40;99.90
5415;DHT22;2730;51.512;7.504;2022-11-04T20:12:48;9.30;99.90
5415;DHT22;2730;51.512;7.504;2022-11-04T20:15:34;9.20;99.90
5415;DHT22;2730;51.512;7.504;2022-11-04T20:18:01;9.10;99.90
5415;DHT22;2730;51.512;7.504;2022-11-04T20:20:28;9.00;99.90
5415;DHT22;2730;51.512;7.504;2022-11-04T20:22:55;9.00;99.90
5415;DHT22;2730;51.512;7.504;2022-11-04T20:25:22;8.90;99.90
5415;DHT22;2730;51.512;7.504;2022-11-04T20:27:49;8.80;99.90
5415;DHT22;2730;51.512;7.504;2022-11-04T20:30:16;8.80;99.90
5415;DHT22;2730;51.512;7.504;2022-11-04T20:32:44;8.80;99.90
5415;DHT22;2730;51.512;7.504;2022-11-04T20:35:11;8.80;99.90
5415;DHT22;2730;51.512;7.504;2022-11-04T20:37:38;8.70;99.90
5415;DHT22;2730;51.512;7.504;2022-11-04T20:40:07;8.70;99.90
5415;DHT22;2730;51.512;7.504;2022-11-04T20:42:34;8.70;99.90
5415;DHT22;2730;51.512;7.504;2022-11-04T20:45:01;8.70;99.90
5415;DHT22;2730;51.512;7.504;2022-11-04T20:47:28;8.70;99.90
5415;DHT22;2730;51.512;7.504;2022-11-04T20:49:56;8.60;99.90
5415;DHT22;2730;51.512;7.504;2022-11-04T20:52:23;8.60;99.90
5415;DHT22;2730;51.512;7.504;2022-11-04T20:54:50;8.70;99.90
5415;DHT22;2730;51.512;7.504;2022-11-04T20:57:18;8.60;99.90
5415;DHT22;2730;51.512;7.504;2022-11-04T20:59:44;8.60;99.90
5415;DHT22;2730;51.512;7.504;2022-11-04T21:02:11;8.60;99.90
5415;DHT22;2730;51.512;7.504;2022-11-04T21:04:38;8.60;99.90
5415;DHT22;2730;51.512;7.504;2022-11-04T21:07:06;8.60;99.90
5415;DHT22;2730;51.512;7.504;2022-11-04T21:09:33;8.60;99.90
5415;DHT22;2730;51.512;7.504;2022-11-04T21:12:00;8.60;99.90
5415;DHT22;2730;51.512;7.504;2022-11-04T21:14:26;8.70;99.90
5415;DHT22;2730;51.512;7.504;2022-11-04T21:16:55;8.70;99.90
5415;DHT22;2730;51.512;7.504;2022-11-04T21:19:22;8.70;99.90
5415;DHT22;2730;51.512;7.504;2022-11-04T21:21:48;8.70;99.90
5415;DHT22;2730;51.512;7.504;2022-11-04T21:24:16;8.80;99.90
5415;DHT22;2730;51.512;7.504;2022-11-04T21:26:43;8.80;99.90
5415;DHT22;2730;51.512;7.504;2022-11-04T21:29:12;8.90;99.90
5415;DHT22;2730;51.512;7.504;2022-11-04T21:31:39;8.90;99.90
5415;DHT22;2730;51.512;7.504;2022-11-04T21:34:06;8.90;99.90
5415;DHT22;2730;51.512;7.504;2022-11-04T21:36:33;9.00;99.90
5415;DHT22;2730;51.512;7.504;2022-11-04T21:39:00;9.10;99.90
5415;DHT22;2730;51.512;7.504;2022-11-04T21:41:29;9.20;99.90
5415;DHT22;2730;51.512;7.504;2022-11-04T21:43:59;9.20;99.90
5415;DHT22;2730;51.512;7.504;2022-11-04T21:46:27;9.30;99.90
5415;DHT22;2730;51.512;7.504;2022-11-04T21:48:56;9.40;99.90
5415;DHT22;2730;51.512;7.504;2022-11-04T21:51:24;9.40;99.90
5415;DHT22;2730;51.512;7.504;2022-11-04T21:53:53;9.40;99.90
5415;DHT22;2730;51.512;7.504;2022-11-04T21:56:22;9.50;99.90
5415;DHT22;2730;51.512;7.504;2022-11-04T21:58:52;9.50;99.90
5415;DHT22;2730;51.512;7.504;2022-11-04T22:01:21;9.50;99.90
5415;DHT22;2730;51.512;7.504;2022-11-04T22:03:50;9.50;99.90
5415;DHT22;2730;51.512;7.504;2022-11-04T22:06:18;9.50;99.90
5415;DHT22;2730;51.512;7.504;2022-11-04T22:08:46;9.50;99.90
5415;DHT22;2730;51.512;7.504;2022-11-04T22:11:15;9.50;99.90
5415;DHT22;2730;51.512;7.504;2022-11-04T22:13:43;9.50;99.90
5415;DHT22;2730;51.512;7.504;2022-11-04T22:16:14;9.50;99.90
5415;DHT22;2730;51.512;7.504;2022-11-04T22:18:42;9.50;99.90
5415;DHT22;2730;51.512;7.504;2022-11-04T22:21:11;9.50;99.90
5415;DHT22;2730;51.512;7.504;2022-11-04T22:23:38;9.50;99.90
5415;DHT22;2730;51.512;7.504;2022-11-04T22:26:06;9.40;99.90
5415;DHT22;2730;51.512;7.504;2022-11-04T22:28:33;9.40;99.90
5415;DHT22;2730;51.512;7.504;2022-11-04T22:31:04;9.40;99.90
5415;DHT22;2730;51.512;7.504;2022-11-04T22:33:33;9.40;99.90
5415;DHT22;2730;51.512;7.504;2022-11-04T22:36:00;9.40;99.90
5415;DHT22;2730;51.512;7.504;2022-11-04T22:38:27;9.30;99.90
5415;DHT22;2730;51.512;7.504;2022-11-04T22:40:54;9.30;99.90